Time;durP1;ratioP1;P1;durP2;ratioP2;P2;SDS_P1;SDS_P2;PMS_P1;PMS_P2;Temp;Humidity;BMP_temperature;BMP_pressure;BME280_temperature;BME280_humidity;BME280_pressure;Samples;Min_cycle;Max_cycle;Signal;HPM_P1;HPM_P2
2022/12/11 00:02:08;;;;;;;6.30;2.05;;;1.00;93.00;;;;;;6152238;23;20005;-75
2022/12/11 00:04:34;;;;;;;5.95;2.03;;;1.00;93.00;;;;;;6127548;23;20797;-74
2022/12/11 00:07:00;;;;;;;5.97;2.00;;;1.00;93.00;;;;;;6150613;23;20452;-75
2022/12/11 00:09:25;;;;;;;5.18;1.77;;;1.00;93.00;;;;;;6153742;23;20145;-75
2022/12/11 00:11:51;;;;;;;6.93;2.25;;;1.00;93.00;;;;;;6152187;23;20341;-75
2022/12/11 00:14:17;;;;;;;4.10;1.50;;;1.00;93.00;;;;;;6127537;23;20422;-75
2022/12/11 00:16:43;;;;;;;4.35;1.65;;;1.00;93.00;;;;;;6152271;23;20088;-76
2022/12/11 00:19:09;;;;;;;3.58;1.50;;;1.10;93.10;;;;;;6153998;23;20009;-76
2022/12/11 00:21:35;;;;;;;5.60;1.95;;;1.10;93.00;;;;;;6154000;23;20332;-76
2022/12/11 00:24:00;;;;;;;8.80;2.45;;;1.20;93.10;;;;;;6153448;23;20012;-75
2022/12/11 00:26:26;;;;;;;6.40;2.05;;;1.00;93.00;;;;;;6153731;23;20016;-74
2022/12/11 00:28:54;;;;;;;4.35;1.67;;;1.00;93.00;;;;;;6152084;23;20017;-74
2022/12/11 00:31:21;;;;;;;5.85;1.98;;;1.10;93.00;;;;;;6153987;23;20008;-75
2022/12/11 00:33:48;;;;;;;6.72;1.80;;;1.10;93.00;;;;;;6151743;23;20111;-74
2022/12/11 00:36:18;;;;;;;5.88;2.38;;;1.10;93.00;;;;;;6176490;23;20013;-74
2022/12/11 00:38:43;;;;;;;5.18;1.50;;;1.10;93.00;;;;;;6152419;23;20342;-75
2022/12/11 00:41:10;;;;;;;4.75;1.65;;;1.10;93.10;;;;;;6153936;23;20116;-78
2022/12/11 00:43:36;;;;;;;3.63;1.33;;;1.30;93.10;;;;;;6153580;23;20002;-76
2022/12/11 00:46:02;;;;;;;4.95;1.48;;;1.10;93.00;;;;;;6153824;23;20434;-77
2022/12/11 00:48:29;;;;;;;2.97;1.23;;;1.20;93.10;;;;;;6153857;23;20001;-75
2022/12/11 00:50:55;;;;;;;5.72;2.35;;;1.20;93.00;;;;;;6152005;23;20017;-76
2022/12/11 00:53:20;;;;;;;3.90;1.48;;;1.20;93.30;;;;;;6152651;23;20108;-73
2022/12/11 00:55:46;;;;;;;3.95;1.65;;;1.20;93.00;;;;;;6151883;23;20080;-73
2022/12/11 00:58:13;;;;;;;5.68;2.03;;;1.20;93.00;;;;;;6153095;23;20390;-74
2022/12/11 01:00:39;;;;;;;5.32;1.65;;;1.10;93.00;;;;;;6153748;23;20002;-73
2022/12/11 01:03:05;;;;;;;5.05;2.00;;;1.20;93.00;;;;;;6153687;23;20028;-73
2022/12/11 01:05:31;;;;;;;6.50;1.98;;;1.20;93.10;;;;;;6153446;23;20438;-73
2022/12/11 01:07:57;;;;;;;3.80;1.48;;;1.20;93.10;;;;;;6151289;23;20084;-73
2022/12/11 01:10:23;;;;;;;4.80;1.70;;;1.20;93.10;;;;;;6152733;23;20064;-73
2022/12/11 01:12:52;;;;;;;4.78;1.60;;;1.30;93.10;;;;;;6152812;23;20002;-73
2022/12/11 01:15:19;;;;;;;4.88;1.77;;;1.20;93.10;;;;;;6176023;23;20117;-73
2022/12/11 01:17:45;;;;;;;4.65;1.70;;;1.20;93.10;;;;;;6175928;23;20378;-73
2022/12/11 01:20:11;;;;;;;7.13;1.83;;;1.20;93.00;;;;;;6151162;23;20007;-73
2022/12/11 01:22:36;;;;;;;6.93;2.50;;;1.10;93.00;;;;;;6151913;23;20006;-73
2022/12/11 01:25:03;;;;;;;6.65;2.30;;;1.20;93.00;;;;;;6153150;23;20833;-73
2022/12/11 01:27:28;;;;;;;4.25;1.80;;;1.20;93.00;;;;;;6152759;23;20016;-74
2022/12/11 01:29:54;;;;;;;5.68;2.15;;;1.20;93.00;;;;;;6152804;23;20002;-73
2022/12/11 01:32:19;;;;;;;4.90;1.88;;;1.20;93.10;;;;;;6151327;23;20323;-73
2022/12/11 01:34:45;;;;;;;5.05;1.95;;;1.20;93.30;;;;;;6151949;23;20411;-73
2022/12/11 01:37:11;;;;;;;5.30;1.95;;;1.30;93.30;;;;;;6151770;23;20358;-73
2022/12/11 01:39:37;;;;;;;4.57;1.80;;;1.30;93.10;;;;;;6127184;23;20299;-73
2022/12/11 01:42:05;;;;;;;4.95;1.70;;;1.20;93.00;;;;;;6151149;23;20009;-73
2022/12/11 01:44:57;;;;;;;3.65;1.45;;;1.30;93.20;;;;;;6153034;23;20277;-73
2022/12/11 01:47:23;;;;;;;6.35;2.17;;;1.30;93.10;;;;;;6156350;23;20033;-74
2022/12/11 01:49:48;;;;;;;5.20;1.90;;;1.30;93.00;;;;;;6152869;23;20011;-74
2022/12/11 01:52:20;;;;;;;6.30;2.33;;;1.30;93.00;;;;;;6150647;23;20430;-74
2022/12/11 01:54:46;;;;;;;8.07;2.45;;;1.30;93.00;;;;;;6152392;23;20069;-73
2022/12/11 01:57:14;;;;;;;6.35;1.85;;;1.20;93.00;;;;;;6152574;23;20005;-73
2022/12/11 01:59:44;;;;;;;7.03;2.60;;;1.30;93.10;;;;;;6152377;23;20009;-73
2022/12/11 02:02:17;;;;;;;7.30;2.50;;;1.20;93.00;;;;;;6152450;23;20304;-73
2022/12/11 02:04:44;;;;;;;8.45;2.30;;;1.20;93.00;;;;;;6152938;23;20029;-73
2022/12/11 02:07:10;;;;;;;6.10;1.73;;;1.10;93.00;;;;;;6152517;23;20088;-73
2022/12/11 02:09:39;;;;;;;5.53;1.77;;;1.20;93.10;;;;;;6152896;23;20060;-73
2022/12/11 02:12:38;;;;;;;4.43;2.05;;;1.20;93.10;;;;;;6152389;23;20136;-73
2022/12/11 02:15:26;;;;;;;4.72;1.70;;;1.20;93.10;;;;;;6150646;23;20009;-73
2022/12/11 02:18:03;;;;;;;5.20;1.65;;;1.20;93.10;;;;;;6175528;23;19997;-73
2022/12/11 02:20:38;;;;;;;5.40;1.75;;;1.20;93.10;;;;;;6152913;23;20005;-73
2022/12/11 02:23:29;;;;;;;7.20;2.17;;;1.20;93.10;;;;;;6153623;23;20010;-73
2022/12/11 02:26:18;;;;;;;7.25;1.75;;;1.20;93.20;;;;;;6153755;23;20055;-73
2022/12/11 02:28:49;;;;;;;5.53;1.92;;;1.20;93.10;;;;;;6154318;23;20009;-73
2022/12/11 02:31:29;;;;;;;6.03;1.98;;;1.20;93.10;;;;;;6153746;23;19998;-73
2022/12/11 02:34:11;;;;;;;4.18;1.52;;;1.10;93.10;;;;;;6154060;23;20014;-73
2022/12/11 02:36:42;;;;;;;4.25;1.23;;;1.20;93.20;;;;;;6153570;23;20080;-73
2022/12/11 02:39:11;;;;;;;3.97;1.50;;;1.20;93.10;;;;;;6152074;23;20001;-73
2022/12/11 02:41:41;;;;;;;4.05;1.25;;;1.20;93.10;;;;;;6154010;23;20093;-73
2022/12/11 02:44:11;;;;;;;4.05;1.40;;;1.20;93.20;;;;;;6152376;23;20446;-73
2022/12/11 02:46:38;;;;;;;3.78;1.52;;;1.20;93.20;;;;;;6153781;23;20009;-73
2022/12/11 02:49:06;;;;;;;4.05;1.50;;;1.30;93.20;;;;;;6153969;23;20013;-73
2022/12/11 02:51:36;;;;;;;4.40;1.70;;;1.20;93.20;;;;;;6153821;23;20412;-73
2022/12/11 02:54:03;;;;;;;3.13;1.58;;;1.30;93.10;;;;;;6152142;23;20327;-73
2022/12/11 02:56:35;;;;;;;5.90;1.80;;;1.30;93.10;;;;;;6153854;23;20064;-74
2022/12/11 02:59:09;;;;;;;4.47;1.48;;;1.40;93.20;;;;;;6153641;23;20075;-73
2022/12/11 03:01:35;;;;;;;4.75;1.70;;;1.20;93.10;;;;;;6153342;23;20002;-73
2022/12/11 03:04:00;;;;;;;4.40;1.55;;;1.20;93.10;;;;;;6153355;23;20013;-73
2022/12/11 03:06:33;;;;;;;5.55;1.67;;;1.30;93.20;;;;;;6153706;23;20326;-73
2022/12/11 03:08:58;;;;;;;4.57;1.33;;;1.20;93.20;;;;;;6153928;23;20080;-73
2022/12/11 03:11:24;;;;;;;3.67;1.60;;;1.40;93.20;;;;;;6153845;23;20092;-73
2022/12/11 03:13:50;;;;;;;4.22;1.33;;;1.40;93.20;;;;;;6153751;23;20097;-73
2022/12/11 03:16:34;;;;;;;7.25;1.80;;;1.30;93.20;;;;;;6153975;23;20089;-73
2022/12/11 03:19:17;;;;;;;5.03;1.73;;;1.30;93.20;;;;;;6151932;23;20481;-73
2022/12/11 03:21:52;;;;;;;4.57;1.63;;;1.30;93.20;;;;;;6153706;23;20029;-73
2022/12/11 03:24:24;;;;;;;5.30;1.80;;;1.30;93.20;;;;;;6153704;23;20331;-73
2022/12/11 03:26:57;;;;;;;5.60;2.10;;;1.30;93.20;;;;;;6176395;23;20012;-73
2022/12/11 03:29:28;;;;;;;6.07;1.95;;;1.40;93.20;;;;;;6153578;23;20399;-73
2022/12/11 03:32:02;;;;;;;3.85;1.58;;;1.30;93.10;;;;;;6153798;23;20017;-73
2022/12/11 03:34:36;;;;;;;5.57;1.98;;;1.30;93.20;;;;;;6176498;23;20014;-73
2022/12/11 03:37:03;;;;;;;3.95;1.45;;;1.40;93.20;;;;;;6153362;23;20012;-73
2022/12/11 03:39:33;;;;;;;3.60;1.65;;;1.30;93.10;;;;;;6153176;23;20418;-73
2022/12/11 03:42:02;;;;;;;5.13;2.10;;;1.40;93.20;;;;;;6153198;23;20008;-73
2022/12/11 03:44:30;;;;;;;6.85;1.45;;;1.40;93.20;;;;;;6153111;23;20025;-73
2022/12/11 03:46:58;;;;;;;3.88;1.67;;;1.40;93.10;;;;;;6153501;23;20013;-73
2022/12/11 03:49:28;;;;;;;4.35;1.77;;;1.40;93.10;;;;;;6153485;23;20423;-73
2022/12/11 03:51:57;;;;;;;2.90;1.25;;;1.40;93.10;;;;;;6152479;23;20029;-73
2022/12/11 03:54:23;;;;;;;4.72;1.30;;;1.40;93.20;;;;;;6153199;23;20002;-74
2022/12/11 03:56:53;;;;;;;4.47;1.40;;;1.50;93.20;;;;;;6153641;23;20009;-73
2022/12/11 03:59:19;;;;;;;3.75;1.40;;;1.50;93.20;;;;;;6152066;23;20080;-73
2022/12/11 04:01:44;;;;;;;5.28;1.70;;;1.50;93.20;;;;;;6153343;23;20013;-73
2022/12/11 04:04:10;;;;;;;5.90;1.88;;;1.40;93.20;;;;;;6153632;23;20303;-73
2022/12/11 04:06:36;;;;;;;3.60;1.50;;;1.50;93.20;;;;;;6151985;23;20122;-74
2022/12/11 04:09:02;;;;;;;4.88;1.88;;;1.50;93.20;;;;;;6153563;23;20010;-73
2022/12/11 04:11:34;;;;;;;6.72;2.20;;;1.40;93.20;;;;;;6151587;23;20489;-73
2022/12/11 04:16:43;;;;;;;6.90;2.30;;;1.40;93.20;;;;;;6153288;23;20052;-74
2022/12/11 04:24:33;;;;;;;8.50;2.30;;;1.50;93.20;;;;;;6151802;23;20009;-73
2022/12/11 04:26:59;;;;;;;6.55;2.60;;;1.60;93.20;;;;;;6151289;23;20013;-74
2022/12/11 04:29:25;;;;;;;6.35;2.35;;;1.50;93.20;;;;;;6153409;23;20001;-73
2022/12/11 04:31:50;;;;;;;5.80;1.80;;;1.50;93.20;;;;;;6153254;23;20009;-74
2022/12/11 04:34:16;;;;;;;4.70;2.03;;;1.50;93.10;;;;;;6152045;23;20358;-74
2022/12/11 04:36:42;;;;;;;5.28;1.85;;;1.50;93.10;;;;;;6152973;23;20005;-73
2022/12/11 04:39:08;;;;;;;4.85;1.88;;;1.60;93.20;;;;;;6153141;23;20088;-73
2022/12/11 04:41:34;;;;;;;5.07;1.73;;;1.50;93.10;;;;;;6153261;23;20093;-73
2022/12/11 04:44:00;;;;;;;4.20;1.67;;;1.60;93.20;;;;;;6152142;23;20001;-73
2022/12/11 04:46:26;;;;;;;3.35;1.50;;;1.60;93.20;;;;;;6153589;23;20010;-73
2022/12/11 04:48:52;;;;;;;2.35;1.02;;;1.60;93.20;;;;;;6153514;23;20084;-73
2022/12/11 04:51:18;;;;;;;3.00;1.42;;;1.60;93.20;;;;;;6152025;23;20006;-74
2022/12/11 04:53:45;;;;;;;5.90;1.83;;;1.60;93.20;;;;;;6153478;23;20002;-73
2022/12/11 04:56:13;;;;;;;5.68;2.10;;;1.60;93.20;;;;;;6153594;23;20052;-73
2022/12/11 04:58:40;;;;;;;4.57;1.80;;;1.70;93.20;;;;;;6153479;23;20072;-73
2022/12/11 05:01:09;;;;;;;5.53;2.10;;;1.60;93.20;;;;;;6153407;23;20346;-73
2022/12/11 05:03:34;;;;;;;4.97;1.95;;;1.70;93.20;;;;;;6152171;23;20005;-73
2022/12/11 05:06:00;;;;;;;4.55;1.70;;;1.80;93.20;;;;;;6151550;23;20119;-73
2022/12/11 05:08:26;;;;;;;4.43;1.77;;;1.60;93.20;;;;;;6151813;23;20006;-74
2022/12/11 05:10:57;;;;;;;4.78;1.48;;;1.60;93.20;;;;;;6153817;23;20005;-73
2022/12/11 05:13:23;;;;;;;4.47;1.65;;;1.60;93.20;;;;;;6153138;23;20001;-73
2022/12/11 05:15:49;;;;;;;4.30;1.67;;;1.60;93.20;;;;;;6153116;23;20326;-74
2022/12/11 05:18:14;;;;;;;4.13;1.55;;;1.60;93.20;;;;;;6153132;23;20001;-73
2022/12/11 05:20:40;;;;;;;4.43;1.83;;;1.60;93.20;;;;;;6153782;23;20020;-73
2022/12/11 05:23:06;;;;;;;3.50;1.67;;;1.60;93.20;;;;;;6153324;23;20076;-73
2022/12/11 05:25:31;;;;;;;3.50;1.60;;;1.60;93.50;;;;;;6153019;23;20060;-74
2022/12/11 05:27:57;;;;;;;3.72;1.65;;;1.60;93.20;;;;;;6153083;23;20087;-73
2022/12/11 05:30:22;;;;;;;4.47;1.65;;;1.70;93.20;;;;;;6151449;23;19993;-74
2022/12/11 05:32:48;;;;;;;3.70;1.45;;;1.70;93.20;;;;;;6151763;23;20014;-73
2022/12/11 05:35:14;;;;;;;5.35;1.88;;;1.70;93.20;;;;;;6152935;23;19997;-73
2022/12/11 05:37:39;;;;;;;7.22;1.98;;;1.70;93.20;;;;;;6151975;23;19997;-73
2022/12/11 05:40:06;;;;;;;3.47;1.50;;;1.70;93.20;;;;;;6151470;23;19998;-73
2022/12/11 05:42:32;;;;;;;3.67;1.50;;;1.70;93.20;;;;;;6152709;23;20012;-73
2022/12/11 05:44:58;;;;;;;3.65;1.38;;;1.70;93.20;;;;;;6153035;23;20436;-73
2022/12/11 05:47:24;;;;;;;4.05;1.50;;;1.70;93.20;;;;;;6153382;23;20056;-73
2022/12/11 05:49:50;;;;;;;4.18;1.60;;;1.70;93.20;;;;;;6152818;23;20033;-74
2022/12/11 05:52:17;;;;;;;3.20;1.48;;;1.70;93.20;;;;;;6152912;23;20010;-74
2022/12/11 05:54:42;;;;;;;5.97;1.90;;;1.70;93.20;;;;;;6151173;23;20362;-73
2022/12/11 05:57:08;;;;;;;4.70;1.98;;;1.70;93.20;;;;;;6152564;23;20019;-74
2022/12/11 05:59:33;;;;;;;4.40;1.65;;;1.70;93.10;;;;;;6141014;23;20419;-74
2022/12/11 06:01:59;;;;;;;5.07;2.13;;;1.70;93.10;;;;;;6154740;23;20017;-73
2022/12/11 06:04:25;;;;;;;3.70;1.85;;;1.60;93.10;;;;;;6154330;23;20001;-73
2022/12/11 06:06:53;;;;;;;5.43;2.17;;;1.70;93.10;;;;;;6154281;23;20009;-73
2022/12/11 06:09:19;;;;;;;3.45;1.70;;;1.70;93.10;;;;;;6154394;23;20013;-73
2022/12/11 06:11:45;;;;;;;4.03;1.77;;;1.60;93.10;;;;;;6153167;23;20002;-73
2022/12/11 06:14:11;;;;;;;5.50;2.17;;;1.60;93.10;;;;;;6154355;23;20041;-73
2022/12/11 06:16:37;;;;;;;4.57;1.70;;;1.60;93.10;;;;;;6152238;23;20013;-73
2022/12/11 06:19:02;;;;;;;4.90;2.20;;;1.70;93.10;;;;;;6154646;23;20801;-73
2022/12/11 06:21:30;;;;;;;5.13;2.17;;;1.60;93.10;;;;;;6152374;23;20447;-74
2022/12/11 06:23:58;;;;;;;5.30;2.05;;;1.60;93.10;;;;;;6154382;23;20005;-73
2022/12/11 06:26:24;;;;;;;5.50;1.98;;;1.60;93.00;;;;;;6154343;23;20009;-74
2022/12/11 06:28:50;;;;;;;4.43;2.10;;;1.60;93.00;;;;;;6154230;23;20002;-73
2022/12/11 06:31:17;;;;;;;5.95;2.60;;;1.60;93.00;;;;;;6154410;23;20002;-74
2022/12/11 06:33:42;;;;;;;4.80;2.35;;;1.50;93.00;;;;;;6154103;23;20063;-73
2022/12/11 06:36:13;;;;;;;5.82;2.58;;;1.50;93.10;;;;;;6154517;23;20084;-73
2022/12/11 06:38:39;;;;;;;5.60;2.63;;;1.50;93.10;;;;;;6154492;23;20369;-73
2022/12/11 06:41:07;;;;;;;4.93;2.13;;;1.50;93.10;;;;;;6154622;23;20088;-73
2022/12/11 06:43:34;;;;;;;4.55;2.20;;;1.50;93.10;;;;;;6152645;23;20009;-74
2022/12/11 06:46:04;;;;;;;5.10;1.90;;;1.50;93.10;;;;;;6154438;23;20006;-73
2022/12/11 06:48:30;;;;;;;3.88;1.65;;;1.50;93.10;;;;;;6177285;23;20407;-73
2022/12/11 06:50:56;;;;;;;5.32;2.05;;;1.50;93.10;;;;;;6154063;23;20004;-74
2022/12/11 06:53:22;;;;;;;3.40;1.90;;;1.50;93.10;;;;;;6152480;23;19997;-74
2022/12/11 06:55:48;;;;;;;4.72;1.83;;;1.50;93.00;;;;;;6152528;23;20448;-73
2022/12/11 06:58:14;;;;;;;4.07;2.03;;;1.50;93.10;;;;;;6154486;23;20006;-74
2022/12/11 07:00:40;;;;;;;4.53;2.22;;;1.50;93.00;;;;;;6154560;23;20005;-73
2022/12/11 07:03:05;;;;;;;4.90;2.05;;;1.50;93.00;;;;;;6154568;23;20001;-73
2022/12/11 07:05:32;;;;;;;5.22;1.98;;;1.50;93.00;;;;;;6152897;23;20013;-73
2022/12/11 07:07:58;;;;;;;5.00;2.15;;;1.50;93.00;;;;;;6153405;23;20106;-74
2022/12/11 07:10:24;;;;;;;4.43;1.88;;;1.50;93.00;;;;;;6154057;23;20388;-74
2022/12/11 07:12:52;;;;;;;4.97;2.20;;;1.50;93.00;;;;;;6154419;23;19998;-74
2022/12/11 07:15:18;;;;;;;5.68;2.47;;;1.50;93.00;;;;;;6152621;23;20005;-73
2022/12/11 07:17:44;;;;;;;4.97;2.10;;;1.40;93.00;;;;;;6153780;23;20001;-74
2022/12/11 07:20:10;;;;;;;4.50;2.10;;;1.40;93.00;;;;;;6152320;23;19998;-73
2022/12/11 07:22:35;;;;;;;3.65;1.50;;;1.50;93.00;;;;;;6153626;23;20049;-74
2022/12/11 07:25:01;;;;;;;5.57;2.17;;;1.40;93.00;;;;;;6153914;23;20008;-73
2022/12/11 07:27:27;;;;;;;3.75;1.70;;;1.40;93.00;;;;;;6154382;23;20315;-74
2022/12/11 07:29:54;;;;;;;4.88;2.00;;;1.50;93.00;;;;;;6154450;23;20318;-73
2022/12/11 07:32:20;;;;;;;3.70;1.52;;;1.30;93.00;;;;;;6153762;23;20064;-73
2022/12/11 07:34:47;;;;;;;3.97;1.80;;;1.40;93.00;;;;;;6153605;23;20001;-74
2022/12/11 07:37:13;;;;;;;4.05;1.65;;;1.40;93.00;;;;;;6152650;23;20028;-74
2022/12/11 07:39:39;;;;;;;3.95;1.60;;;1.50;93.00;;;;;;6152200;23;20442;-73
2022/12/11 07:42:04;;;;;;;3.10;1.38;;;1.50;93.00;;;;;;6153652;23;20006;-74
2022/12/11 07:44:30;;;;;;;3.75;1.92;;;1.40;93.00;;;;;;6152072;23;20028;-73
2022/12/11 07:46:56;;;;;;;2.92;1.30;;;1.40;93.00;;;;;;6153637;23;20010;-74
2022/12/11 07:49:21;;;;;;;3.95;1.77;;;1.40;93.00;;;;;;6154339;23;20303;-73
2022/12/11 07:51:47;;;;;;;4.13;1.77;;;1.40;93.00;;;;;;6152167;23;20052;-74
2022/12/11 07:54:15;;;;;;;4.00;1.83;;;1.40;93.00;;;;;;6154060;23;19998;-74
2022/12/11 07:56:43;;;;;;;3.60;1.70;;;1.40;93.00;;;;;;6154073;23;20506;-74
2022/12/11 07:59:09;;;;;;;3.78;1.88;;;1.40;92.90;;;;;;6153903;23;20406;-73
2022/12/11 08:01:36;;;;;;;3.50;1.80;;;1.30;92.90;;;;;;6152651;23;20040;-73
2022/12/11 08:04:05;;;;;;;4.03;1.63;;;1.40;92.90;;;;;;6177076;23;20040;-73
2022/12/11 08:06:33;;;;;;;4.60;1.90;;;1.40;92.90;;;;;;6154091;23;20453;-73
2022/12/11 08:09:00;;;;;;;3.25;1.73;;;1.40;92.90;;;;;;6154150;23;20019;-73
2022/12/11 08:11:27;;;;;;;3.58;1.40;;;1.30;92.90;;;;;;6176630;23;20005;-73
2022/12/11 08:13:53;;;;;;;3.97;1.85;;;1.40;92.90;;;;;;6153870;23;20005;-73
2022/12/11 08:16:19;;;;;;;3.65;1.75;;;1.40;92.90;;;;;;6154150;23;20002;-73
2022/12/11 08:18:46;;;;;;;4.10;1.67;;;1.40;92.90;;;;;;6154083;23;20014;-73
2022/12/11 08:21:14;;;;;;;3.10;1.40;;;1.40;92.90;;;;;;6154033;23;20008;-74
2022/12/11 08:23:40;;;;;;;2.58;1.40;;;1.30;92.80;;;;;;6152648;23;20053;-73
2022/12/11 08:26:08;;;;;;;2.70;1.27;;;1.40;92.80;;;;;;6153933;23;20009;-73
2022/12/11 08:28:34;;;;;;;3.47;1.67;;;1.40;92.80;;;;;;6154150;23;20445;-73
2022/12/11 08:31:05;;;;;;;2.53;1.23;;;1.40;92.80;;;;;;6154284;23;20025;-73
2022/12/11 08:33:31;;;;;;;2.53;1.37;;;1.40;92.80;;;;;;6154290;23;20005;-73
2022/12/11 08:35:57;;;;;;;2.75;1.30;;;1.40;92.80;;;;;;6153407;23;20006;-74
2022/12/11 08:38:23;;;;;;;2.83;1.38;;;1.50;92.80;;;;;;6154188;23;20314;-74
2022/12/11 08:40:49;;;;;;;3.33;1.55;;;1.40;92.80;;;;;;6152215;23;20006;-73
2022/12/11 08:43:14;;;;;;;3.67;1.73;;;1.40;92.80;;;;;;6153519;23;20330;-73
2022/12/11 08:45:40;;;;;;;4.80;1.95;;;1.40;92.70;;;;;;6151784;23;20018;-74
2022/12/11 08:48:05;;;;;;;3.97;1.88;;;1.40;92.70;;;;;;6152008;23;20005;-73
2022/12/11 08:50:31;;;;;;;4.63;2.13;;;1.50;92.80;;;;;;6145828;23;20079;-73
2022/12/11 08:52:57;;;;;;;2.83;1.30;;;1.40;92.70;;;;;;6153220;23;20005;-73
2022/12/11 08:55:23;;;;;;;4.43;1.52;;;1.40;92.70;;;;;;6151888;23;20001;-73
2022/12/11 08:57:49;;;;;;;2.25;1.05;;;1.40;92.70;;;;;;6153446;23;20006;-73
2022/12/11 09:00:17;;;;;;;3.92;1.73;;;1.50;92.70;;;;;;6162891;23;20081;-73
2022/12/11 09:02:43;;;;;;;2.50;1.20;;;1.50;92.70;;;;;;6151978;23;20009;-74
2022/12/11 09:05:08;;;;;;;3.40;1.50;;;1.50;92.70;;;;;;6151727;23;20005;-74
2022/12/11 09:07:35;;;;;;;3.08;1.40;;;1.50;92.70;;;;;;6153828;23;20068;-74
2022/12/11 09:10:02;;;;;;;2.47;1.05;;;1.50;92.70;;;;;;6176087;23;20402;-74
2022/12/11 09:12:28;;;;;;;3.13;1.35;;;1.60;92.70;;;;;;6127530;23;20330;-74
2022/12/11 09:14:54;;;;;;;1.90;1.02;;;1.60;92.70;;;;;;6151866;23;20008;-74
2022/12/11 09:17:19;;;;;;;2.20;1.10;;;1.60;92.70;;;;;;6127267;23;20387;-74
2022/12/11 09:19:45;;;;;;;1.95;1.10;;;1.70;92.70;;;;;;6152985;23;20081;-74
2022/12/11 09:22:11;;;;;;;1.88;1.02;;;1.70;92.70;;;;;;6153247;23;20009;-74
2022/12/11 09:24:38;;;;;;;1.98;1.05;;;1.70;92.70;;;;;;6153342;23;20002;-74
2022/12/11 09:27:05;;;;;;;3.08;1.38;;;1.70;92.70;;;;;;6153269;23;20013;-75
2022/12/11 09:29:31;;;;;;;2.55;1.30;;;1.70;92.70;;;;;;6151700;23;20387;-74
2022/12/11 09:31:57;;;;;;;2.63;1.48;;;1.70;92.70;;;;;;6153277;23;20006;-74
2022/12/11 09:34:23;;;;;;;2.70;1.20;;;1.60;92.60;;;;;;6152811;23;20005;-74
2022/12/11 09:36:48;;;;;;;2.28;1.27;;;1.70;92.70;;;;;;6154194;23;20005;-74
2022/12/11 09:39:16;;;;;;;3.53;1.50;;;1.80;92.70;;;;;;6152624;23;20005;-74
2022/12/11 09:42:01;;;;;;;2.92;1.45;;;1.80;92.60;;;;;;6154155;23;20009;-75
2022/12/11 09:44:42;;;;;;;2.85;1.20;;;1.70;92.60;;;;;;6152816;23;20374;-74
2022/12/11 09:47:22;;;;;;;3.63;1.50;;;1.70;92.60;;;;;;6154176;23;20026;-75
2022/12/11 09:49:53;;;;;;;2.10;0.90;;;1.80;92.60;;;;;;6152622;23;20701;-74
2022/12/11 09:52:24;;;;;;;3.10;1.40;;;1.80;92.50;;;;;;6154722;23;20068;-75
2022/12/11 09:54:55;;;;;;;2.58;1.30;;;1.80;92.50;;;;;;6153219;23;19998;-74
2022/12/11 09:57:51;;;;;;;2.75;1.38;;;1.80;92.50;;;;;;6152448;23;20067;-75
2022/12/11 10:00:25;;;;;;;3.00;1.25;;;1.90;92.50;;;;;;6154031;23;20048;-75
2022/12/11 10:03:30;;;;;;;2.95;1.38;;;1.80;92.50;;;;;;6152831;23;20025;-75
2022/12/11 10:06:19;;;;;;;3.05;1.38;;;1.80;92.50;;;;;;6153005;23;20436;-75
2022/12/11 10:09:06;;;;;;;1.95;1.00;;;1.80;92.50;;;;;;6154165;23;20333;-75
2022/12/11 10:11:57;;;;;;;2.97;1.05;;;1.90;92.50;;;;;;6153088;23;20004;-75
2022/12/11 10:14:39;;;;;;;2.55;1.00;;;1.90;92.50;;;;;;6154151;23;20434;-75
2022/12/11 10:17:19;;;;;;;1.73;0.95;;;1.90;92.40;;;;;;6152581;23;20014;-75
2022/12/11 10:19:45;;;;;;;2.28;0.98;;;2.00;92.50;;;;;;6154734;23;20443;-75
2022/12/11 10:22:23;;;;;;;3.08;1.48;;;2.10;92.40;;;;;;6154323;23;20018;-75
2022/12/11 10:25:01;;;;;;;1.50;0.93;;;2.00;92.40;;;;;;6128220;23;20012;-76
2022/12/11 10:27:32;;;;;;;1.90;0.93;;;2.10;92.40;;;;;;6153939;23;20088;-75
2022/12/11 10:30:19;;;;;;;1.52;0.90;;;2.10;92.40;;;;;;6154648;23;20085;-76
2022/12/11 10:32:52;;;;;;;3.08;1.23;;;2.00;92.30;;;;;;6154227;23;20005;-76
2022/12/11 10:35:27;;;;;;;2.45;0.90;;;2.20;92.40;;;;;;6153995;23;20005;-76
2022/12/11 10:38:00;;;;;;;1.75;0.82;;;2.10;92.40;;;;;;6153998;23;20068;-76
2022/12/11 10:40:28;;;;;;;2.22;1.08;;;2.10;92.30;;;;;;6177423;23;20005;-76
2022/12/11 10:42:54;;;;;;;2.30;1.08;;;2.20;92.30;;;;;;6153988;23;20463;-76
2022/12/11 10:45:22;;;;;;;1.65;0.95;;;2.20;92.30;;;;;;6152283;23;20001;-76
2022/12/11 10:47:48;;;;;;;2.30;0.93;;;2.20;92.60;;;;;;6127913;23;20498;-76
2022/12/11 10:50:23;;;;;;;2.03;1.02;;;2.20;92.30;;;;;;6153893;23;20054;-76
2022/12/11 10:52:51;;;;;;;2.08;1.15;;;2.20;92.30;;;;;;6154117;23;20426;-76
2022/12/11 10:55:24;;;;;;;2.90;1.30;;;2.20;92.30;;;;;;6153987;23;20040;-76
2022/12/11 10:58:04;;;;;;;2.15;1.10;;;2.30;92.30;;;;;;6154119;23;19998;-76
2022/12/11 11:00:36;;;;;;;2.95;1.33;;;2.20;92.30;;;;;;6153997;23;20020;-76
2022/12/11 11:03:05;;;;;;;1.55;1.00;;;2.30;92.30;;;;;;6152476;23;20458;-76
2022/12/11 11:05:34;;;;;;;2.03;1.13;;;2.20;92.30;;;;;;6153896;23;20014;-76
2022/12/11 11:08:13;;;;;;;2.65;1.38;;;2.20;92.30;;;;;;6154040;23;20005;-76
2022/12/11 11:10:56;;;;;;;1.90;0.90;;;2.30;92.40;;;;;;6154534;23;20085;-76
2022/12/11 11:13:24;;;;;;;1.27;0.85;;;2.30;92.30;;;;;;6152538;23;20029;-76
2022/12/11 11:16:06;;;;;;;3.15;1.23;;;2.30;92.40;;;;;;6152280;23;20009;-76
2022/12/11 11:18:33;;;;;;;2.58;1.27;;;2.20;92.30;;;;;;6154671;23;20015;-76
2022/12/11 11:21:00;;;;;;;2.22;1.13;;;2.30;92.30;;;;;;6153826;23;20002;-76
2022/12/11 11:23:27;;;;;;;3.05;1.50;;;2.20;92.30;;;;;;6177053;23;20021;-76
2022/12/11 11:25:57;;;;;;;2.67;1.20;;;2.30;92.30;;;;;;6154132;23;20092;-77
2022/12/11 11:28:28;;;;;;;1.75;0.98;;;2.30;92.40;;;;;;6153844;23;20444;-76
2022/12/11 11:31:00;;;;;;;2.65;1.13;;;2.40;92.40;;;;;;6153222;23;20024;-76
2022/12/11 11:33:27;;;;;;;2.65;1.17;;;2.30;92.30;;;;;;6153177;23;20033;-76
2022/12/11 11:35:57;;;;;;;1.98;1.08;;;2.30;92.30;;;;;;6153824;23;20002;-77
2022/12/11 11:38:29;;;;;;;2.10;1.25;;;2.30;92.30;;;;;;6153622;23;20044;-76
2022/12/11 11:41:14;;;;;;;2.53;1.38;;;2.30;92.30;;;;;;6152249;23;20005;-76
2022/12/11 11:43:58;;;;;;;2.65;1.27;;;2.30;92.30;;;;;;6154303;23;20006;-77
2022/12/11 11:46:30;;;;;;;3.30;1.38;;;2.30;92.30;;;;;;6177459;23;20025;-76
2022/12/11 11:49:06;;;;;;;3.35;1.60;;;2.30;92.30;;;;;;6154120;23;20080;-77
2022/12/11 11:51:38;;;;;;;2.60;1.38;;;2.30;92.30;;;;;;6152098;23;20005;-76
2022/12/11 11:54:23;;;;;;;3.03;1.48;;;2.20;92.30;;;;;;6154218;23;20005;-77
2022/12/11 11:56:52;;;;;;;2.42;1.17;;;2.20;92.40;;;;;;6152139;23;20442;-77
2022/12/11 11:59:40;;;;;;;2.25;1.48;;;2.30;92.40;;;;;;6152093;23;20304;-76
2022/12/11 12:02:15;;;;;;;4.15;1.55;;;2.20;92.40;;;;;;6152347;23;20006;-76
2022/12/11 12:04:42;;;;;;;3.45;1.70;;;2.20;92.40;;;;;;6152202;23;20080;-77
2022/12/11 12:07:28;;;;;;;3.45;1.52;;;2.20;92.40;;;;;;6176993;23;20017;-77
2022/12/11 12:10:27;;;;;;;3.33;1.60;;;2.10;92.40;;;;;;6177165;23;20534;-76
2022/12/11 12:13:02;;;;;;;2.88;1.30;;;2.10;92.40;;;;;;6154007;23;20108;-76
2022/12/11 12:15:39;;;;;;;2.60;1.25;;;2.20;92.40;;;;;;6153721;23;20437;-76
2022/12/11 12:18:28;;;;;;;2.72;1.35;;;2.20;92.40;;;;;;6154434;23;20054;-76
2022/12/11 12:21:18;;;;;;;3.95;1.77;;;2.20;92.40;;;;;;6153656;23;20064;-76
2022/12/11 12:24:04;;;;;;;3.83;1.80;;;2.20;92.30;;;;;;6153473;23;20080;-76
2022/12/11 12:26:35;;;;;;;3.40;1.70;;;2.10;92.30;;;;;;6153953;23;20010;-76
2022/12/11 12:29:15;;;;;;;2.53;1.45;;;2.10;92.40;;;;;;6153498;23;20498;-76
2022/12/11 12:31:52;;;;;;;3.20;1.52;;;2.20;92.40;;;;;;6153622;23;20083;-77
2022/12/11 12:34:39;;;;;;;3.42;1.55;;;2.20;92.30;;;;;;6153761;23;20001;-77
2022/12/11 12:37:26;;;;;;;3.80;1.42;;;2.10;92.30;;;;;;6152087;23;20017;-76
2022/12/11 12:40:13;;;;;;;3.92;1.70;;;2.10;92.30;;;;;;6152015;23;20001;-76
2022/12/11 12:43:05;;;;;;;3.05;1.55;;;2.20;92.40;;;;;;6151831;23;20005;-76
2022/12/11 12:45:49;;;;;;;3.50;1.40;;;2.20;92.40;;;;;;6153483;23;20001;-76
2022/12/11 12:48:15;;;;;;;1.77;1.10;;;2.30;92.40;;;;;;6154125;23;20040;-76
2022/12/11 12:50:45;;;;;;;2.88;1.30;;;2.30;92.30;;;;;;6152669;23;20029;-77
2022/12/11 12:53:18;;;;;;;2.47;1.05;;;2.30;92.30;;;;;;6153667;23;20051;-76
2022/12/11 12:55:46;;;;;;;3.28;1.30;;;2.30;92.30;;;;;;6154225;23;20315;-77
2022/12/11 12:58:38;;;;;;;2.33;1.13;;;2.30;92.30;;;;;;6154139;23;20016;-76
2022/12/11 13:01:08;;;;;;;2.42;1.38;;;2.30;92.30;;;;;;6153290;23;20308;-77
2022/12/11 13:03:48;;;;;;;1.90;1.10;;;2.30;92.20;;;;;;6153799;23;20117;-77
2022/12/11 13:06:14;;;;;;;3.28;1.45;;;2.30;92.20;;;;;;6151797;23;20016;-77
2022/12/11 13:08:46;;;;;;;1.85;1.17;;;2.30;92.30;;;;;;6152259;23;20009;-76
2022/12/11 13:11:15;;;;;;;2.90;1.42;;;2.30;92.30;;;;;;6153282;23;20077;-77
2022/12/11 13:14:05;;;;;;;2.55;1.30;;;2.30;92.40;;;;;;6151440;23;20005;-77
2022/12/11 13:16:38;;;;;;;2.47;1.17;;;2.30;92.30;;;;;;6151287;23;20018;-77
2022/12/11 13:19:17;;;;;;;3.08;1.40;;;2.30;92.30;;;;;;6153530;23;20013;-77
2022/12/11 13:21:56;;;;;;;3.03;1.20;;;2.30;92.30;;;;;;6153406;23;20084;-77